Time;durP1;ratioP1;P1;durP2;ratioP2;P2;SDS_P1;SDS_P2;PMS_P1;PMS_P2;Temp;Humidity;BMP_temperature;BMP_pressure;BME280_temperature;BME280_humidity;BME280_pressure;Samples;Min_cycle;Max_cycle;Signal;HPM_P1;HPM_P2
2022/11/17 00:01:32;;;;;;;;;;;;;;;13.31;58.26;97760.63;4975948;28;19918;-76
2022/11/17 00:03:57;;;;;;;;;;;;;;;13.31;58.33;97758.03;4959692;28;19917;-76
2022/11/17 00:06:22;;;;;;;;;;;;;;;13.32;58.37;97748.38;4992037;28;19928;-76
2022/11/17 00:08:47;;;;;;;;;;;;;;;13.32;58.29;97751.81;5028010;28;19922;-76
2022/11/17 00:11:13;;;;;;;;;;;;;;;13.33;58.70;97744.78;5011853;28;20359;-76
2022/11/17 00:16:22;;;;;;;;;;;;;;;13.34;58.53;97723.66;5012979;28;20048;-76
2022/11/17 00:21:32;;;;;;;;;;;;;;;13.34;58.61;97725.47;5011665;28;19925;-76
2022/11/17 00:23:57;;;;;;;;;;;;;;;13.33;59.08;97729.06;5011610;28;19917;-76
2022/11/17 00:26:26;;;;;;;;;;;;;;;13.34;58.94;97728.09;5011624;28;19918;-76
2022/11/17 00:28:58;;;;;;;;;;;;;;;13.34;58.93;97733.34;5012464;28;20339;-76
2022/11/17 00:34:28;;;;;;;;;;;;;;;13.35;59.29;97740.22;4973172;28;19944;-76
2022/11/17 00:36:54;;;;;;;;;;;;;;;13.34;59.15;97746.44;4972101;28;19961;-76
2022/11/17 00:39:20;;;;;;;;;;;;;;;13.34;59.31;97738.56;4956052;28;20406;-75
2022/11/17 00:41:45;;;;;;;;;;;;;;;13.35;59.59;97732.38;4956012;28;19918;-76
2022/11/17 00:44:10;;;;;;;;;;;;;;;13.35;59.56;97721.88;4972711;28;19918;-75
2022/11/17 00:46:36;;;;;;;;;;;;;;;13.35;59.73;97722.69;4972195;28;20301;-76
2022/11/17 00:49:01;;;;;;;;;;;;;;;13.35;59.84;97722.69;4972649;28;20336;-77
2022/11/17 00:51:26;;;;;;;;;;;;;;;13.34;59.72;97709.75;4972484;28;19972;-76
2022/11/17 00:53:52;;;;;;;;;;;;;;;13.35;59.93;97704.34;4973328;28;19918;-77
2022/11/17 00:56:17;;;;;;;;;;;;;;;13.34;59.83;97692.22;4972154;28;19918;-77
2022/11/17 00:58:43;;;;;;;;;;;;;;;13.35;59.85;97695.66;4972335;28;19960;-76
2022/11/17 01:01:08;;;;;;;;;;;;;;;13.35;59.83;97691.25;4956026;28;20010;-77
2022/11/17 01:03:34;;;;;;;;;;;;;;;13.35;59.78;97687.81;4972303;28;19925;-77
2022/11/17 01:06:06;;;;;;;;;;;;;;;13.33;60.05;97685.34;4975538;28;19929;-76
2022/11/17 01:08:31;;;;;;;;;;;;;;;13.34;59.84;97680.91;4959619;28;19922;-76
2022/11/17 01:11:03;;;;;;;;;;;;;;;13.34;60.20;97675.66;4943176;28;19921;-77
2022/11/17 01:13:28;;;;;;;;;;;;;;;13.34;59.92;97683.53;4944093;28;19925;-76
2022/11/17 01:15:53;;;;;;;;;;;;;;;13.33;60.30;97676.63;4977547;28;19914;-76
2022/11/17 01:18:19;;;;;;;;;;;;;;;13.33;60.13;97677.47;5015518;28;19921;-76
2022/11/17 01:20:44;;;;;;;;;;;;;;;13.32;60.44;97673.19;4981892;28;19920;-75
2022/11/17 01:23:09;;;;;;;;;;;;;;;13.32;60.51;97677.59;4981795;28;19925;-74
2022/11/17 01:25:37;;;;;;;;;;;;;;;13.30;60.14;97675.16;4997709;28;19928;-75
2022/11/17 01:28:02;;;;;;;;;;;;;;;13.30;60.41;97669.91;4998550;28;19917;-75
2022/11/17 01:30:27;;;;;;;;;;;;;;;13.29;60.42;97662.22;4986018;28;19918;-75
2022/11/17 01:32:52;;;;;;;;;;;;;;;13.29;60.57;97659.59;4943331;28;19922;-75
2022/11/17 01:35:18;;;;;;;;;;;;;;;13.27;60.35;97651.06;4943258;28;19925;-75
2022/11/17 01:37:43;;;;;;;;;;;;;;;13.27;60.26;97651.06;4959255;28;19922;-75
2022/11/17 01:40:09;;;;;;;;;;;;;;;13.25;60.46;97653.84;4943192;28;19925;-75
2022/11/17 01:42:34;;;;;;;;;;;;;;;13.23;60.54;97647.13;4942949;28;19918;-75
2022/11/17 01:45:00;;;;;;;;;;;;;;;13.23;60.32;97645.31;4959567;28;19922;-75
2022/11/17 01:47:25;;;;;;;;;;;;;;;13.23;60.28;97636.63;4943040;28;19925;-75
2022/11/17 01:49:52;;;;;;;;;;;;;;;13.21;60.31;97634.19;4975102;28;20013;-75
2022/11/17 01:52:18;;;;;;;;;;;;;;;13.20;60.55;97638.59;4942953;28;20408;-75
2022/11/17 01:54:43;;;;;;;;;;;;;;;13.18;60.38;97632.69;4959001;28;19997;-74
2022/11/17 01:57:10;;;;;;;;;;;;;;;13.18;60.34;97632.69;4959146;28;19922;-76
2022/11/17 01:59:39;;;;;;;;;;;;;;;13.16;60.42;97629.41;4958700;28;20386;-75
2022/11/17 02:02:05;;;;;;;;;;;;;;;13.15;60.43;97632.19;4958829;28;19986;-75
2022/11/17 02:04:33;;;;;;;;;;;;;;;13.14;60.22;97628.75;4942709;28;19918;-75
2022/11/17 02:07:04;;;;;;;;;;;;;;;13.13;60.30;97632.34;4965972;28;20373;-75
2022/11/17 02:09:29;;;;;;;;;;;;;;;13.10;60.23;97635.28;4974908;28;19930;-76
2022/11/17 02:11:55;;;;;;;;;;;;;;;13.08;60.16;97629.41;4958550;28;20404;-76
2022/11/17 02:14:21;;;;;;;;;;;;;;;13.06;60.28;97627.91;4958544;28;19962;-76
2022/11/17 02:16:46;;;;;;;;;;;;;;;13.04;60.47;97622.84;4974745;28;19985;-76
2022/11/17 02:19:11;;;;;;;;;;;;;;;13.02;60.32;97628.22;4975009;28;20266;-76
2022/11/17 02:21:36;;;;;;;;;;;;;;;12.99;59.95;97627.72;4974753;28;20449;-76
2022/11/17 02:24:20;;;;;;;;;;;;;;;12.97;60.23;97624.47;4975759;28;19925;-76
2022/11/17 02:26:51;;;;;;;;;;;;;;;12.95;60.26;97626.41;4976100;28;20390;-76
2022/11/17 02:29:19;;;;;;;;;;;;;;;12.93;60.35;97618.69;4967118;28;20298;-76
2022/11/17 02:31:47;;;;;;;;;;;;;;;12.91;60.37;97614.63;4978445;28;20369;-76
2022/11/17 02:34:25;;;;;;;;;;;;;;;12.89;60.01;97609.53;4958447;28;19918;-76
2022/11/17 02:36:53;;;;;;;;;;;;;;;12.85;60.44;97606.41;4975919;28;20059;-76
2022/11/17 02:39:19;;;;;;;;;;;;;;;12.84;60.31;97603.97;4974082;28;19973;-76
2022/11/17 02:41:55;;;;;;;;;;;;;;;12.84;60.43;97603.97;4958057;28;19922;-79
2022/11/17 02:44:39;;;;;;;;;;;;;;;12.84;60.31;97593.50;4974048;28;19969;-74
2022/11/17 02:47:04;;;;;;;;;;;;;;;12.83;60.50;97597.88;4975118;28;20312;-76
2022/11/17 02:49:34;;;;;;;;;;;;;;;12.84;60.51;97601.34;4974294;28;19918;-75
2022/11/17 02:51:59;;;;;;;;;;;;;;;12.83;60.73;97600.50;4957850;28;19929;-76
2022/11/17 02:54:27;;;;;;;;;;;;;;;12.82;60.84;97606.75;4974192;28;19918;-75
2022/11/17 02:56:52;;;;;;;;;;;;;;;12.83;60.78;97604.94;4973868;28;19953;-75
2022/11/17 02:59:18;;;;;;;;;;;;;;;12.82;60.57;97603.28;4973896;28;19984;-75
2022/11/17 03:01:52;;;;;;;;;;;;;;;12.82;60.80;97598.88;4973589;28;19918;-75
2022/11/17 03:04:21;;;;;;;;;;;;;;;12.82;60.91;97600.66;4975083;28;19923;-75
2022/11/17 03:06:50;;;;;;;;;;;;;;;12.83;60.88;97607.56;4973321;28;19953;-75
2022/11/17 03:09:19;;;;;;;;;;;;;;;12.83;60.60;97597.88;4973780;28;19922;-75
2022/11/17 03:11:45;;;;;;;;;;;;;;;12.83;60.95;97600.50;4975145;28;19914;-75
2022/11/17 03:14:21;;;;;;;;;;;;;;;12.83;60.98;97599.69;4957506;28;19918;-75
2022/11/17 03:16:56;;;;;;;;;;;;;;;12.83;60.77;97586.59;4973451;28;20377;-75
2022/11/17 03:19:31;;;;;;;;;;;;;;;12.83;60.75;97582.19;4973880;28;19924;-75
2022/11/17 03:22:00;;;;;;;;;;;;;;;12.84;61.09;97586.44;4973375;28;19918;-75
2022/11/17 03:24:38;;;;;;;;;;;;;;;12.83;61.12;97579.56;4973459;28;19976;-75
2022/11/17 03:27:27;;;;;;;;;;;;;;;12.84;60.92;97581.22;4956122;28;19969;-75
2022/11/17 03:29:56;;;;;;;;;;;;;;;12.83;60.85;97563.84;4932676;29;19919;-75
2022/11/17 03:32:22;;;;;;;;;;;;;;;12.86;60.76;97570.56;4916791;29;19926;-75
2022/11/17 03:34:48;;;;;;;;;;;;;;;12.86;61.19;97565.34;4918337;29;19919;-75
2022/11/17 03:37:14;;;;;;;;;;;;;;;12.88;61.20;97570.41;4918222;29;20338;-75
2022/11/17 03:39:40;;;;;;;;;;;;;;;12.89;61.18;97564.19;4917926;29;19922;-75
2022/11/17 03:42:11;;;;;;;;;;;;;;;12.88;61.26;97557.31;4917979;29;19945;-75
2022/11/17 03:44:37;;;;;;;;;;;;;;;12.88;61.24;97544.22;4916208;29;19962;-75
2022/11/17 03:47:02;;;;;;;;;;;;;;;12.90;61.03;97544.88;4917434;29;19919;-75
2022/11/17 03:49:39;;;;;;;;;;;;;;;12.88;61.24;97549.47;4917703;29;20021;-75
2022/11/17 03:52:05;;;;;;;;;;;;;;;12.88;61.13;97555.50;4933142;29;20311;-74
2022/11/17 03:54:31;;;;;;;;;;;;;;;12.87;61.23;97553.06;4917750;29;19918;-75
2022/11/17 03:57:16;;;;;;;;;;;;;;;12.87;61.15;97558.28;4917727;29;19926;-75
2022/11/17 03:59:53;;;;;;;;;;;;;;;12.84;61.25;97549.78;4932855;29;19923;-74
2022/11/17 04:02:19;;;;;;;;;;;;;;;12.82;60.77;97551.75;4932451;29;19929;-75
2022/11/17 04:07:28;;;;;;;;;;;;;;;12.79;61.08;97549.44;4952979;28;20448;-75
2022/11/17 04:09:53;;;;;;;;;;;;;;;12.77;61.02;97551.38;4971304;28;19918;-74
2022/11/17 04:17:47;;;;;;;;;;;;;;;12.68;60.87;97552.34;4973496;28;19962;-75
2022/11/17 04:20:12;;;;;;;;;;;;;;;12.64;60.61;97557.09;4972509;28;20441;-75
2022/11/17 04:22:37;;;;;;;;;;;;;;;12.63;60.92;97549.38;4972419;28;19922;-75
2022/11/17 04:25:03;;;;;;;;;;;;;;;12.61;60.42;97553.97;4988663;28;20032;-75
2022/11/17 04:30:12;;;;;;;;;;;;;;;12.55;60.64;97546.75;4985095;28;20396;-74
2022/11/17 04:32:37;;;;;;;;;;;;;;;12.54;60.67;97551.19;5008187;28;19922;-74
2022/11/17 04:35:03;;;;;;;;;;;;;;;12.54;60.86;97556.41;4992439;28;19917;-74
2022/11/17 04:37:28;;;;;;;;;;;;;;;12.54;60.78;97555.56;4991763;28;19924;-74
2022/11/17 04:39:53;;;;;;;;;;;;;;;12.53;60.83;97557.38;4993976;28;20012;-74
2022/11/17 04:42:18;;;;;;;;;;;;;;;12.55;61.00;97549.38;4996441;28;20020;-75
2022/11/17 04:44:44;;;;;;;;;;;;;;;12.55;61.02;97549.38;5012092;28;19990;-75
2022/11/17 04:47:09;;;;;;;;;;;;;;;12.56;61.02;97549.22;4995867;28;19952;-73
2022/11/17 04:49:34;;;;;;;;;;;;;;;12.57;61.19;97556.09;4995824;28;19940;-77
2022/11/17 04:52:00;;;;;;;;;;;;;;;12.59;60.84;97554.13;4995994;28;19921;-77
2022/11/17 04:54:25;;;;;;;;;;;;;;;12.60;61.05;97544.47;4995544;28;19917;-76
2022/11/17 04:56:51;;;;;;;;;;;;;;;12.66;65.41;97528.94;4995505;28;19924;-73
2022/11/17 04:59:16;;;;;;;;;;;;;;;12.97;68.16;97536.22;4995590;28;19918;-75
2022/11/17 05:01:41;;;;;;;;;;;;;;;13.23;70.08;97534.44;4997267;28;20307;-74
2022/11/17 05:04:07;;;;;;;;;;;;;;;13.28;68.10;97527.72;4981428;28;19918;-75
2022/11/17 05:06:34;;;;;;;;;;;;;;;13.22;66.05;97533.63;4959584;28;20304;-76
2022/11/17 05:09:00;;;;;;;;;;;;;;;13.18;65.19;97533.13;4975834;28;19926;-77
2022/11/17 05:14:10;;;;;;;;;;;;;;;13.12;64.06;97538.19;4977017;28;20427;-74
2022/11/17 05:19:20;;;;;;;;;;;;;;;13.12;63.34;97538.19;4975902;28;20312;-79
2022/11/17 05:21:45;;;;;;;;;;;;;;;13.13;62.97;97531.97;4959198;28;19929;-77
2022/11/17 05:24:13;;;;;;;;;;;;;;;13.10;62.65;97535.72;4959747;28;20012;-76
2022/11/17 05:26:38;;;;;;;;;;;;;;;13.11;62.40;97534.75;4975599;28;19918;-76
2022/11/17 05:29:04;;;;;;;;;;;;;;;13.14;62.32;97533.59;4959384;28;19918;-76
2022/11/17 05:31:29;;;;;;;;;;;;;;;13.18;62.36;97530.50;4959354;28;19922;-76
2022/11/17 05:33:55;;;;;;;;;;;;;;;13.23;62.04;97527.38;4975709;28;19919;-76
2022/11/17 05:36:21;;;;;;;;;;;;;;;13.37;61.37;97516.28;4959346;28;19922;-75
2022/11/17 05:38:46;;;;;;;;;;;;;;;13.50;61.11;97520.19;4959274;28;19918;-76
2022/11/17 05:41:12;;;;;;;;;;;;;;;13.50;61.22;97514.97;4975379;28;20266;-76
2022/11/17 05:43:37;;;;;;;;;;;;;;;13.55;61.09;97508.25;4975282;28;19969;-77
2022/11/17 05:46:02;;;;;;;;;;;;;;;13.64;60.79;97514.28;4975660;28;20020;-77
2022/11/17 05:48:28;;;;;;;;;;;;;;;13.70;60.60;97513.63;4975650;28;20396;-77
2022/11/17 05:50:56;;;;;;;;;;;;;;;13.78;60.36;97525.09;4958741;28;19973;-77
2022/11/17 05:53:21;;;;;;;;;;;;;;;13.83;60.39;97526.22;4958921;28;19918;-77
2022/11/17 05:55:47;;;;;;;;;;;;;;;13.85;60.13;97521.63;4975122;28;19973;-77
2022/11/17 05:58:15;;;;;;;;;;;;;;;13.86;60.27;97520.63;4976345;28;19984;-76
2022/11/17 06:00:40;;;;;;;;;;;;;;;13.86;60.10;97519.81;4975014;28;19925;-77
2022/11/17 06:03:07;;;;;;;;;;;;;;;13.88;60.24;97517.84;4974414;28;19919;-76
2022/11/17 06:05:32;;;;;;;;;;;;;;;13.89;60.22;97514.25;4958447;28;20017;-77
2022/11/17 06:07:57;;;;;;;;;;;;;;;13.90;60.20;97521.13;4975155;28;19973;-76
2022/11/17 06:10:23;;;;;;;;;;;;;;;13.92;60.25;97522.59;4958512;28;20017;-76
2022/11/17 06:12:48;;;;;;;;;;;;;;;13.94;60.02;97523.22;4974633;28;20296;-77
2022/11/17 06:15:13;;;;;;;;;;;;;;;13.93;60.34;97520.78;4974840;28;19918;-78
2022/11/17 06:17:49;;;;;;;;;;;;;;;13.98;60.05;97534.22;4974771;28;19954;-77
2022/11/17 06:20:16;;;;;;;;;;;;;;;14.01;60.06;97527.81;4958532;28;19918;-78
2022/11/17 06:22:42;;;;;;;;;;;;;;;14.09;60.00;97522.56;4974586;28;20369;-77
2022/11/17 06:25:07;;;;;;;;;;;;;;;14.17;59.90;97522.53;4974392;28;19990;-78
2022/11/17 06:27:33;;;;;;;;;;;;;;;14.18;59.69;97521.50;4974318;28;19918;-77
2022/11/17 06:29:59;;;;;;;;;;;;;;;14.19;59.79;97520.53;4974098;28;20295;-78
2022/11/17 06:32:24;;;;;;;;;;;;;;;14.20;59.92;97524.81;4957975;28;19918;-75
2022/11/17 06:34:49;;;;;;;;;;;;;;;14.26;59.70;97534.63;4974037;28;19940;-77
2022/11/17 06:37:14;;;;;;;;;;;;;;;14.35;59.61;97521.47;4974538;28;20400;-77
2022/11/17 06:39:40;;;;;;;;;;;;;;;14.39;59.43;97517.50;4957770;28;19925;-77
2022/11/17 06:42:05;;;;;;;;;;;;;;;14.46;59.18;97513.22;4957796;28;19919;-78
2022/11/17 06:44:30;;;;;;;;;;;;;;;14.50;59.32;97511.88;4957837;28;20373;-78
2022/11/17 06:46:56;;;;;;;;;;;;;;;14.57;59.17;97515.44;4957697;28;19918;-78
2022/11/17 06:49:21;;;;;;;;;;;;;;;14.65;58.85;97514.63;4973638;28;19918;-76
2022/11/17 06:51:46;;;;;;;;;;;;;;;14.69;58.76;97517.72;4973731;28;20012;-78
2022/11/17 06:54:13;;;;;;;;;;;;;;;14.69;58.80;97521.19;4991665;28;20060;-77
2022/11/17 06:56:38;;;;;;;;;;;;;;;14.69;58.86;97521.19;4976902;28;19926;-77
2022/11/17 06:59:04;;;;;;;;;;;;;;;14.70;58.80;97524.59;4997917;28;20027;-77
2022/11/17 07:01:29;;;;;;;;;;;;;;;14.71;58.88;97527.06;5011994;28;19925;-78
2022/11/17 07:03:54;;;;;;;;;;;;;;;14.73;58.99;97524.25;4990891;28;20017;-79
2022/11/17 07:06:19;;;;;;;;;;;;;;;14.78;58.95;97519.31;4973518;28;20021;-77
2022/11/17 07:08:45;;;;;;;;;;;;;;;14.83;60.12;97520.44;4978097;28;19922;-79
2022/11/17 07:11:12;;;;;;;;;;;;;;;14.95;60.42;97510.31;4980471;28;19925;-78
2022/11/17 07:13:37;;;;;;;;;;;;;;;15.00;60.42;97515.84;4973393;28;20021;-75
2022/11/17 07:16:04;;;;;;;;;;;;;;;15.03;60.48;97514.69;4973394;28;19997;-77
2022/11/17 07:18:29;;;;;;;;;;;;;;;15.05;60.64;97515.34;4973297;28;19922;-77
2022/11/17 07:20:54;;;;;;;;;;;;;;;15.07;60.63;97508.13;4974568;28;20326;-77
2022/11/17 07:23:19;;;;;;;;;;;;;;;15.10;60.47;97510.41;4973352;28;19918;-77
2022/11/17 07:25:45;;;;;;;;;;;;;;;15.17;60.10;97507.88;4973227;28;19929;-75
2022/11/17 07:28:10;;;;;;;;;;;;;;;15.28;61.93;97496.94;4989015;28;20309;-78
2022/11/17 07:30:36;;;;;;;;;;;;;;;15.37;62.06;97497.69;4973249;28;20001;-77
2022/11/17 07:33:01;;;;;;;;;;;;;;;15.40;61.90;97486.78;4974524;28;19968;-77
2022/11/17 07:35:27;;;;;;;;;;;;;;;15.38;61.65;97483.53;4973133;28;19925;-78
2022/11/17 07:37:56;;;;;;;;;;;;;;;15.41;62.78;97487.63;4973454;28;19919;-78
2022/11/17 07:40:21;;;;;;;;;;;;;;;15.41;61.40;97493.69;4973168;28;19925;-77
2022/11/17 07:42:47;;;;;;;;;;;;;;;15.40;61.31;97485.97;4972813;28;19918;-78
2022/11/17 07:45:13;;;;;;;;;;;;;;;15.41;61.07;97485.00;4989037;28;19924;-77
2022/11/17 07:47:38;;;;;;;;;;;;;;;15.36;60.99;97475.81;4972734;28;19918;-79
2022/11/17 07:50:03;;;;;;;;;;;;;;;15.33;60.91;97472.75;4975219;28;20005;-77
2022/11/17 07:52:29;;;;;;;;;;;;;;;15.28;60.73;97485.63;4974856;28;19932;-80
2022/11/17 07:54:55;;;;;;;;;;;;;;;15.26;60.79;97482.31;4972524;28;19945;-77
2022/11/17 07:57:20;;;;;;;;;;;;;;;15.21;60.77;97472.34;4989302;28;19918;-78
2022/11/17 07:59:45;;;;;;;;;;;;;;;15.14;60.81;97472.22;4990187;28;19918;-73
2022/11/17 08:02:11;;;;;;;;;;;;;;;15.17;62.63;97471.88;4993664;28;20385;-78
2022/11/17 08:04:36;;;;;;;;;;;;;;;15.16;62.31;97472.06;4976781;28;19953;-78
2022/11/17 08:07:02;;;;;;;;;;;;;;;15.14;61.82;97477.50;4972146;28;20017;-78
2022/11/17 08:09:27;;;;;;;;;;;;;;;15.11;61.63;97472.59;4988651;28;20021;-80
2022/11/17 08:11:52;;;;;;;;;;;;;;;15.05;61.61;97475.91;4986812;28;19914;-78
2022/11/17 08:14:18;;;;;;;;;;;;;;;15.01;61.49;97477.28;4989880;28;20373;-76
2022/11/17 08:16:43;;;;;;;;;;;;;;;14.98;61.62;97467.94;4990788;28;19925;-76
2022/11/17 08:19:10;;;;;;;;;;;;;;;14.98;61.44;97477.63;4990386;28;19983;-75
2022/11/17 08:21:36;;;;;;;;;;;;;;;14.98;61.27;97477.63;4989179;28;19932;-79
2022/11/17 08:24:01;;;;;;;;;;;;;;;14.98;61.21;97478.44;4973556;28;20304;-78
2022/11/17 08:26:26;;;;;;;;;;;;;;;14.99;61.14;97493.22;4990512;28;20473;-77
2022/11/17 08:28:52;;;;;;;;;;;;;;;14.96;61.02;97504.09;4974156;28;19918;-84
2022/11/17 08:31:20;;;;;;;;;;;;;;;14.96;61.13;97525.09;4991806;28;19918;-80
2022/11/17 08:33:45;;;;;;;;;;;;;;;14.94;61.01;97531.50;5008233;28;20028;-79
2022/11/17 08:36:10;;;;;;;;;;;;;;;14.95;61.19;97525.28;4992111;28;20389;-80
2022/11/17 08:38:37;;;;;;;;;;;;;;;14.95;61.14;97518.19;4992912;28;20004;-82
2022/11/17 08:41:06;;;;;;;;;;;;;;;14.92;61.17;97512.50;4994084;28;19949;-81
2022/11/17 08:43:31;;;;;;;;;;;;;;;14.89;61.13;97513.63;4992645;28;19965;-80
2022/11/17 08:45:56;;;;;;;;;;;;;;;14.87;61.22;97520.09;4992110;28;19960;-80
2022/11/17 08:48:28;;;;;;;;;;;;;;;14.83;61.21;97520.44;4992164;28;20345;-81
2022/11/17 08:50:53;;;;;;;;;;;;;;;14.82;61.45;97520.59;5008442;28;19918;-84
2022/11/17 08:53:19;;;;;;;;;;;;;;;14.83;61.25;97522.22;4992309;28;19932;-81
2022/11/17 08:55:45;;;;;;;;;;;;;;;14.82;61.44;97523.22;4994266;28;20012;-88
2022/11/17 08:58:14;;;;;;;;;;;;;;;14.81;61.42;97537.34;4993528;28;19960;-83
2022/11/17 09:00:39;;;;;;;;;;;;;;;14.81;61.54;97539.97;4993903;28;20376;-88
2022/11/17 09:03:05;;;;;;;;;;;;;;;14.79;61.38;97545.41;4994465;28;19941;-86
2022/11/17 09:05:30;;;;;;;;;;;;;;;14.81;61.36;97550.47;4977007;28;19924;-83
2022/11/17 09:07:57;;;;;;;;;;;;;;;14.80;61.39;97543.56;4975901;28;19940;-82
2022/11/17 09:10:23;;;;;;;;;;;;;;;14.81;61.66;97539.97;4976355;28;19917;-82
2022/11/17 09:12:49;;;;;;;;;;;;;;;14.81;61.72;97543.41;4990519;28;19918;-83
2022/11/17 09:15:14;;;;;;;;;;;;;;;14.83;61.62;97546.69;4973335;28;19924;-81
2022/11/17 09:17:42;;;;;;;;;;;;;;;14.87;61.64;97546.34;4973323;28;20289;-81
2022/11/17 09:20:07;;;;;;;;;;;;;;;14.87;61.79;97549.78;4989499;28;19918;-81
2022/11/17 09:22:33;;;;;;;;;;;;;;;14.88;61.78;97553.22;4989551;28;20342;-82
2022/11/17 09:24:58;;;;;;;;;;;;;;;14.87;61.74;97549.78;4991306;28;20016;-81
2022/11/17 09:27:23;;;;;;;;;;;;;;;14.86;61.63;97566.53;4977986;28;19917;-83
2022/11/17 09:29:49;;;;;;;;;;;;;;;14.83;61.98;97559.84;4979114;28;20016;-83
2022/11/17 09:32:15;;;;;;;;;;;;;;;14.82;62.30;97562.63;4978924;28;20017;-83
2022/11/17 09:34:41;;;;;;;;;;;;;;;14.81;62.37;97555.72;4979175;28;19961;-83
2022/11/17 09:37:06;;;;;;;;;;;;;;;14.81;62.53;97555.72;4979041;28;20313;-82
2022/11/17 09:39:31;;;;;;;;;;;;;;;14.82;62.26;97560.00;4995147;28;19925;-81
2022/11/17 09:41:56;;;;;;;;;;;;;;;14.84;62.29;97545.69;4979090;28;19918;-83
2022/11/17 09:44:27;;;;;;;;;;;;;;;14.87;62.19;97556.88;4979543;28;20059;-82
2022/11/17 09:47:22;;;;;;;;;;;;;;;14.87;62.18;97557.66;4994920;28;19925;-83
2022/11/17 09:49:50;;;;;;;;;;;;;;;14.90;61.98;97567.03;4958891;28;19918;-83
2022/11/17 09:52:24;;;;;;;;;;;;;;;14.90;61.98;97561.78;4959587;28;20425;-81
2022/11/17 09:54:57;;;;;;;;;;;;;;;14.91;61.93;97542.38;4958425;28;19984;-81
2022/11/17 09:57:39;;;;;;;;;;;;;;;14.93;62.02;97540.41;4942677;28;20005;-82
2022/11/17 10:00:04;;;;;;;;;;;;;;;14.95;61.84;97526.09;4957965;28;19926;-81
2022/11/17 10:02:30;;;;;;;;;;;;;;;14.99;61.99;97534.44;4958086;28;20305;-82
2022/11/17 10:04:56;;;;;;;;;;;;;;;14.99;61.73;97527.38;4955545;29;19947;-81
2022/11/17 10:07:21;;;;;;;;;;;;;;;15.01;61.74;97509.63;4938574;29;20337;-82
2022/11/17 10:09:46;;;;;;;;;;;;;;;15.01;61.61;97512.25;4954672;29;19919;-81
2022/11/17 10:12:13;;;;;;;;;;;;;;;15.01;61.93;97504.38;4938726;29;19919;-78
2022/11/17 10:14:38;;;;;;;;;;;;;;;15.05;61.79;97498.75;4955120;29;20417;-79
2022/11/17 10:17:05;;;;;;;;;;;;;;;15.07;61.64;97487.09;4955215;29;19957;-82
2022/11/17 10:19:31;;;;;;;;;;;;;;;15.06;61.49;97476.75;4939366;29;19984;-81
2022/11/17 10:22:02;;;;;;;;;;;;;;;15.02;61.71;97485.00;4938986;29;20347;-82
2022/11/17 10:24:33;;;;;;;;;;;;;;;15.02;61.80;97487.63;4938615;29;20009;-82
2022/11/17 10:26:59;;;;;;;;;;;;;;;15.01;61.70;97479.91;4984339;28;20373;-82
2022/11/17 10:29:26;;;;;;;;;;;;;;;15.00;61.73;97497.47;4958917;28;20012;-82
2022/11/17 10:31:51;;;;;;;;;;;;;;;15.02;61.78;97497.28;4960595;28;19919;-80
2022/11/17 10:34:33;;;;;;;;;;;;;;;15.05;61.69;97480.38;4975428;28;20301;-82
2022/11/17 10:37:03;;;;;;;;;;;;;;;15.09;61.71;97494.81;4973577;28;19973;-83
2022/11/17 10:39:36;;;;;;;;;;;;;;;15.11;61.67;97488.34;4957740;28;19929;-82
2022/11/17 10:42:03;;;;;;;;;;;;;;;15.13;61.49;97480.28;4958450;28;19929;-82
2022/11/17 10:44:29;;;;;;;;;;;;;;;15.14;61.59;97480.13;4958701;28;19918;-82
2022/11/17 10:46:58;;;;;;;;;;;;;;;15.18;61.61;97488.47;4958451;28;20376;-81
2022/11/17 10:49:25;;;;;;;;;;;;;;;15.17;61.30;97486.84;4974158;28;20428;-82
2022/11/17 10:52:02;;;;;;;;;;;;;;;15.19;61.43;97500.63;4957966;28;19922;-81
2022/11/17 10:54:28;;;;;;;;;;;;;;;15.19;61.53;97513.75;4975490;28;20047;-81
2022/11/17 10:56:55;;;;;;;;;;;;;;;15.20;61.49;97518.03;4973406;28;19961;-82
2022/11/17 10:59:20;;;;;;;;;;;;;;;15.25;61.64;97499.09;4973906;28;19918;-83
2022/11/17 11:01:48;;;;;;;;;;;;;;;15.36;61.20;97486.34;4990410;28;19940;-80
2022/11/17 11:04:40;;;;;;;;;;;;;;;15.58;60.89;97489.09;4969233;28;19940;-83
2022/11/17 11:07:09;;;;;;;;;;;;;;;15.80;60.69;97505.84;4989761;28;19980;-82
2022/11/17 11:09:36;;;;;;;;;;;;;;;15.99;60.37;97509.75;4995167;28;19945;-80
2022/11/17 11:12:02;;;;;;;;;;;;;;;16.13;60.10;97484.44;4977072;28;20377;-81
2022/11/17 11:14:41;;;;;;;;;;;;;;;16.42;59.66;97483.56;4994591;28;19940;-81
2022/11/17 11:17:10;;;;;;;;;;;;;;;16.85;58.99;97482.00;4977087;28;19925;-80
2022/11/17 11:19:36;;;;;;;;;;;;;;;16.92;58.56;97475.81;4993138;28;19918;-80
2022/11/17 11:22:02;;;;;;;;;;;;;;;17.07;58.17;97485.47;4977220;28;20001;-82
2022/11/17 11:24:36;;;;;;;;;;;;;;;17.14;57.82;97484.53;4992814;28;20065;-81
2022/11/17 11:27:02;;;;;;;;;;;;;;;17.27;57.41;97478.56;4976638;28;20373;-81
2022/11/17 11:29:40;;;;;;;;;;;;;;;17.36;57.26;97484.50;4999799;28;20041;-81
2022/11/17 11:32:24;;;;;;;;;;;;;;;17.49;57.09;97481.13;5009213;28;20392;-80
2022/11/17 11:35:02;;;;;;;;;;;;;;;17.60;56.73;97492.97;5009036;28;19976;-80
2022/11/17 11:37:30;;;;;;;;;;;;;;;17.88;56.03;97493.84;4992852;28;19985;-80
2022/11/17 11:40:15;;;;;;;;;;;;;;;17.99;56.06;97476.59;4992471;28;19917;-81
2022/11/17 11:42:44;;;;;;;;;;;;;;;18.24;55.51;97471.66;4992453;28;19918;-81
2022/11/17 11:45:16;;;;;;;;;;;;;;;18.39;55.30;97471.50;5008815;28;19921;-80
2022/11/17 11:47:41;;;;;;;;;;;;;;;18.44;55.14;97478.84;4993487;28;20396;-79
2022/11/17 11:50:39;;;;;;;;;;;;;;;18.43;55.17;97477.22;5008639;28;19950;-80
2022/11/17 11:53:08;;;;;;;;;;;;;;;18.48;54.82;97477.44;4953009;29;19918;-81
2022/11/17 11:55:33;;;;;;;;;;;;;;;18.37;55.11;97473.53;4952806;29;19918;-80
2022/11/17 11:58:11;;;;;;;;;;;;;;;18.32;55.11;97472.50;4952758;29;20122;-81
2022/11/17 12:00:38;;;;;;;;;;;;;;;18.26;55.29;97471.44;4952637;29;19918;-81
2022/11/17 12:03:09;;;;;;;;;;;;;;;18.20;55.42;97481.00;4949721;29;19925;-80
2022/11/17 12:05:46;;;;;;;;;;;;;;;18.16;55.25;97482.38;4933685;29;19919;-81
2022/11/17 12:08:11;;;;;;;;;;;;;;;18.26;55.15;97485.50;4933193;29;20018;-80
2022/11/17 12:10:46;;;;;;;;;;;;;;;18.27;54.88;97479.19;4917654;29;20030;-80
2022/11/17 12:13:11;;;;;;;;;;;;;;;18.24;55.02;97476.13;4933727;29;19919;-80
2022/11/17 12:15:37;;;;;;;;;;;;;;;18.26;54.91;97474.94;4917995;29;19962;-81
2022/11/17 12:18:04;;;;;;;;;;;;;;;18.27;54.87;97479.19;4917027;29;19983;-80
2022/11/17 12:20:29;;;;;;;;;;;;;;;18.16;55.09;97485.03;4901990;29;19973;-81
2022/11/17 12:22:58;;;;;;;;;;;;;;;18.00;55.48;97488.00;4917844;29;20021;-80
2022/11/17 12:25:27;;;;;;;;;;;;;;;17.87;55.72;97480.78;4917758;29;20412;-80
2022/11/17 12:27:52;;;;;;;;;;;;;;;17.71;55.92;97480.09;4925083;28;20005;-80
2022/11/17 12:30:30;;;;;;;;;;;;;;;17.57;56.12;97483.66;4956463;28;19957;-79
2022/11/17 12:32:55;;;;;;;;;;;;;;;17.43;56.47;97476.66;4972557;28;19918;-80
2022/11/17 12:35:24;;;;;;;;;;;;;;;17.38;56.43;97479.84;4956554;28;19918;-80
2022/11/17 12:38:08;;;;;;;;;;;;;;;17.39;56.41;97480.66;4972698;28;20309;-80
2022/11/17 12:40:36;;;;;;;;;;;;;;;17.34;56.68;97487.31;4989006;28;20454;-81
2022/11/17 12:43:15;;;;;;;;;;;;;;;17.31;56.80;97476.34;4972489;28;20013;-81
2022/11/17 12:45:59;;;;;;;;;;;;;;;17.28;56.89;97480.16;4972722;28;19925;-80
2022/11/17 12:48:27;;;;;;;;;;;;;;;17.26;56.94;97499.84;4973850;28;19941;-80
2022/11/17 12:51:09;;;;;;;;;;;;;;;17.19;56.95;97494.53;4956278;28;19926;-80
2022/11/17 12:53:51;;;;;;;;;;;;;;;17.09;57.19;97491.38;4956307;28;19925;-80
2022/11/17 12:56:19;;;;;;;;;;;;;;;16.97;57.61;97498.97;4988641;28;19929;-80
2022/11/17 12:58:47;;;;;;;;;;;;;;;16.90;57.55;97492.81;4972491;28;19930;-79
2022/11/17 13:01:16;;;;;;;;;;;;;;;16.82;57.55;97491.91;4975775;28;20533;-80
2022/11/17 13:03:50;;;;;;;;;;;;;;;16.80;57.66;97499.16;4975420;28;19918;-81
2022/11/17 13:06:15;;;;;;;;;;;;;;;16.78;57.74;97495.91;4975482;28;19922;-80
2022/11/17 13:09:00;;;;;;;;;;;;;;;16.75;57.78;97498.13;4959775;28;19980;-79
2022/11/17 13:11:25;;;;;;;;;;;;;;;16.73;57.76;97503.56;4959223;28;19941;-79
2022/11/17 13:14:11;;;;;;;;;;;;;;;16.70;57.68;97488.13;4960004;28;19918;-80
2022/11/17 13:16:41;;;;;;;;;;;;;;;16.62;57.73;97494.34;4959856;28;19928;-79